Campanya meteocatpedra

Dades de l'estació automàtica el Canós

?
?
Resum diari 21:30 TU
Dades diàries de l'estació meteorològica
Temperatura mitjana 18.8 °C
Temperatura màxima 23.3 °C 12:37 TU
Temperatura mínima 16.2 °C 7:22 TU
Humitat relativa mitjana 70%
Precipitació acumulada 0.2 mm
Ratxa màxima del vent (2 m) 17.6 km/h - 103º 11:38 TU
Irradiació solar global 10.2 MJ/m2

El tram horari està expressat en Temps Universal (TU). Cal sumar una hora en horari d'hivern i dues en horari d'estiu per passar a l'hora oficial.

el Canós

Metadades estació meteorol´gica
Municipi Els Plans de Sió
Comarca Segarra
Altitud 429 m
Data alta 22.10.1988
Estat actual Operativa
Dades de període
Període
TU
TM
°C
TX
°C
TN
°C
HRM
%
PPT
mm
VVM (2 m)
km/h
DVM (2 m)
graus
VVX (2 m)
km/h
RS
W/m2
00:00 - 00:30 17.8 17.9 17.7 70 0.0 2.2 64 7.9 0
00:30 - 01:00 17.6 17.7 17.5 70 0.0 1.8 69 9.7 0
01:00 - 01:30 17.4 17.8 17.2 72 0.0 1.4 61 10.1 0
01:30 - 02:00 17.9 17.9 17.8 69 0.0 2.2 87 9.0 0
02:00 - 02:30 17.5 17.8 17.2 71 0.0 1.1 88 4.3 0
02:30 - 03:00 17.2 17.4 17.1 72 0.0 1.4 90 6.5 0
03:00 - 03:30 17.4 17.5 17.3 71 0.0 1.8 117 8.6 0
03:30 - 04:00 17.5 17.6 17.3 70 0.0 2.2 97 11.5 0
04:00 - 04:30 17.3 17.6 17.0 72 0.0 2.5 90 7.9 0
04:30 - 05:00 17.1 17.2 17.0 73 0.0 3.2 92 12.2 0
05:00 - 05:30 16.8 17.0 16.6 74 0.0 1.8 107 9.0 0
05:30 - 06:00 16.7 16.9 16.6 75 0.0 1.8 121 8.3 0
06:00 - 06:30 17.0 17.1 16.8 74 0.0 1.4 103 7.6 1
06:30 - 07:00 17.1 17.1 16.8 74 0.0 1.8 106 5.8 7
07:00 - 07:30 16.4 16.7 16.2 81 0.0 2.2 141 7.2 19
07:30 - 08:00 16.5 16.6 16.3 81 0.0 2.5 150 6.8 39
08:00 - 08:30 16.5 16.7 16.4 83 0.0 1.1 142 4.7 73
08:30 - 09:00 17.8 19.1 16.8 77 0.0 1.4 112 9.7 190
09:00 - 09:30 19.7 20.4 19.2 65 0.0 4.0 87 15.1 282
09:30 - 10:00 20.8 21.5 20.4 62 0.0 4.7 92 14.4 503
10:00 - 10:30 21.4 21.7 20.5 60 0.0 5.4 93 15.1 464
10:30 - 11:00 20.7 21.0 20.5 62 0.0 5.0 90 16.9 321
11:00 - 11:30 21.1 21.2 21.0 60 0.0 6.1 91 14.8 366
11:30 - 12:00 21.5 21.8 21.2 59 0.0 5.8 90 17.6 416
12:00 - 12:30 21.7 23.0 21.3 59 0.0 5.4 91 15.1 515
12:30 - 13:00 22.8 23.3 22.2 57 0.0 4.0 94 15.8 574
13:00 - 13:30 22.7 23.0 22.4 57 0.0 4.0 93 11.9 621
13:30 - 14:00 22.7 23.2 22.0 57 0.0 4.7 93 15.8 485
14:00 - 14:30 21.9 22.7 21.1 59 0.0 5.0 92 14.4 270
14:30 - 15:00 20.8 21.2 20.2 65 0.1 3.6 93 13.7 177
15:00 - 15:30 21.1 21.4 20.9 61 0.0 4.3 91 13.3 160
15:30 - 16:00 20.6 20.9 20.3 62 0.0 5.0 92 14.4 111
16:00 - 16:30 20.2 20.3 20.0 63 0.0 4.7 93 16.6 68
16:30 - 17:00 19.8 20.0 19.5 65 0.0 4.7 90 14.8 26
17:00 - 17:30 19.1 19.5 18.4 69 0.0 3.6 90 12.6 0
17:30 - 18:00 18.5 18.6 18.4 72 0.0 3.2 93 9.4 0
18:00 - 18:30 18.0 18.5 17.6 76 0.1 2.2 116 11.5 0
18:30 - 19:00 17.6 17.7 17.6 78 0.0 1.4 131 8.3 0
19:00 - 19:30 17.5 17.6 17.5 78 0.0 0.7 117 8.6 0
19:30 - 20:00 17.6 17.7 17.5 77 0.0 1.1 120 5.8 0
20:00 - 20:30 17.5 17.7 17.5 77 0.0 1.1 90 6.1 0
20:30 - 21:00 17.5 17.6 17.4 78 0.0 1.1 91 5.4 0
21:00 - 21:30 17.3 17.4 17.3 79 0.0 0.7 136 3.2 0
21:30 - 22:00 17.3 17.5 16.9 80 0.0 1.4 207 4.0 0

Les dades en taronja només han passat un control de qualitat automàtic. Resta pendent la seva validació definitiva.